• Join FlightAware (Why Join?)
  • Login
  • US Flag 
07:48PM EST


 

Airport Tracker/Info


-or-


 

Live Flight TrackerFlight Track Log ✈ SWA2877 ✈ 02-Feb-2014 ✈ KSFO - KATL

Flight Track Log - Related Links

Times and Time Zones

All times are in EST time to prevent confusion due to time zone crossing. See the SWA2877 flight status page for this flight to view local times or setup timezone preferences in your user account.

Time Position Orientation Groundspeed Altitude Reporting Facility
EST Latitude Longitude Course Direction KTS MPH feet Rate Location/Type
09:45AM 37.6000 -122.3333 90° East 159 183 1,700  Level Northern Cal TRACON
09:46AM 37.6000 -122.2667 90° East 208 239 3,600 1,962 Climbing Northern Cal TRACON
09:47AM 37.5806 -122.2147 115° Southeast 204 235 5,100 2,457 Climbing Oakland Center
09:48AM 37.5586 -122.1231 107° East 260 299 7,900 2,678 Climbing Oakland Center
09:49AM 37.5875 -122.0325 68° East 304 350 10,500 1,934 Climbing Oakland Center
09:50AM 37.6381 -121.9256 59° Northeast 350 403 11,800 1,785 Climbing Oakland Center
09:51AM 37.6967 -121.8036 59° Northeast 398 458 14,100 2,400 Climbing Oakland Center
09:52AM 37.7567 -121.6775 59° Northeast 415 478 16,600 2,380 Climbing Oakland Center
09:53AM 37.8189 -121.5461 59° Northeast 429 494 18,900 2,182 Climbing Oakland Center
09:54AM 37.8839 -121.4128 58° Northeast 441 507 21,000 1,934 Climbing Oakland Center
09:55AM 37.9381 -121.2644 65° Northeast 463 533 22,800 1,636 Climbing Oakland Center
09:56AM 37.9636 -121.1033 79° East 471 542 24,300 1,488 Climbing Oakland Center
09:57AM 37.9914 -120.9367 78° East 483 556 25,800 1,537 Climbing Oakland Center
09:58AM 38.0239 -120.7311 79° East 496 571 27,400 1,050 Climbing Oakland Center
09:59AM 38.0522 -120.5547 78° East 511 588 27,900 1,240 Climbing Oakland Center
10:00AM 38.0806 -120.3728 79° East 524 603 29,900 2,033 Climbing Oakland Center
10:01AM 38.1094 -120.1950 78° East 519 597 32,000 1,537 Climbing Oakland Center
10:02AM 38.1361 -120.0186 79° East 513 590 33,000 992 Climbing Oakland Center
10:03AM 38.1639 -119.8422 79° East 513 590 34,000 1,100 Climbing Oakland Center
10:04AM 38.1903 -119.6611 79° East 522 601 35,200 1,240 Climbing Oakland Center
10:05AM 38.2178 -119.4825 79° East 517 595 36,500 878 Climbing Oakland Center
10:06AM 38.2436 -119.2994 80° East 519 597 37,000 248 Climbing Oakland Center
10:07AM 38.2694 -119.1200 80° East 518 596 37,000  Level Oakland Center
10:08AM 38.2967 -118.9386 79° East 523 602 37,000  Level Oakland Center
10:09AM 38.3222 -118.7583 80° East 522 601 37,000  Level Oakland Center
10:10AM 38.3469 -118.5792 80° East 518 596 37,000  Level Oakland Center
10:11AM 38.3728 -118.3983 80° East 521 600 37,000  Level Oakland Center
10:12AM 38.3969 -118.2203 80° East 516 594 37,000  Level Oakland Center
10:13AM 38.4208 -118.0458 80° East 513 590 37,000  Level Oakland Center
10:14AM 38.4447 -117.8672 80° East 510 587 37,000  Level Oakland Center
10:15AM 38.4678 -117.6881 81° East 509 586 37,000  Level Oakland Center
10:16AM 38.4911 -117.5103 80° East 506 582 37,000  Level Oakland Center
10:17AM 38.5142 -117.3306 81° East 507 583 37,000  Level Oakland Center
10:18AM 38.5175 -117.1453 89° East 516 594 37,000  Level Oakland Center
10:19AM 38.5125 -116.9597 92° East 517 595 37,000  Level Oakland Center
10:20AM 38.5086 -116.7753 91° East 516 594 37,000  Level Oakland Center
10:21AM 38.5042 -116.5903 92° East 517 595 37,000  Level Oakland Center
10:22AM 38.4994 -116.4050 92° East 520 598 37,000  Level Oakland Center
10:23AM 38.4939 -116.2211 92° East 520 598 37,000  Level Oakland Center
10:24AM 38.4892 -116.0372 92° East 518 596 37,000  Level Oakland Center
10:25AM 38.4822 -115.8181 92° East 515 593 37,000  Level Salt Lake Center
10:26AM 38.4764 -115.6353 92° East 514 592 37,000  Level Salt Lake Center
10:27AM 38.4708 -115.4531 92° East 514 592 37,000  Level Salt Lake Center
10:28AM 38.4631 -115.2531 93° East 520 598 37,000  Level Salt Lake Center
10:29AM 38.4586 -115.0694 92° East 521 600 37,000  Level Salt Lake Center
10:30AM 38.4547 -114.8864 91° East 518 596 37,000  Level Salt Lake Center
10:31AM 38.4478 -114.7042 93° East 516 594 37,000  Level Salt Lake Center
10:32AM 38.4428 -114.5219 92° East 516 594 37,000  Level Salt Lake Center
10:33AM 38.4369 -114.3381 92° East 518 596 37,000  Level Salt Lake Center
10:34AM 38.4311 -114.1544 92° East 518 596 37,000  Level Salt Lake Center
10:35AM 38.4247 -113.9686 92° East 524 603 37,000  Level Salt Lake Center
10:36AM 38.4181 -113.7825 93° East 526 605 37,000  Level Salt Lake Center
10:37AM 38.4103 -113.5964 93° East 524 603 37,000  Level Salt Lake Center
10:38AM 38.4031 -113.4106 93° East 524 603 37,000  Level Salt Lake Center
10:39AM 38.3947 -113.2239 93° East 527 606 37,000  Level Salt Lake Center
10:40AM 38.3864 -113.0369 93° East 527 606 37,000  Level Salt Lake Center
10:41AM 38.3783 -112.8500 93° East 527 606 37,000  Level Salt Lake Center
10:42AM 38.3706 -112.6661 93° East 521 600 37,000  Level Salt Lake Center
10:43AM 38.3608 -112.4819 94° East 521 600 37,000  Level Salt Lake Center
10:44AM 38.3519 -112.2961 93° East 524 603 37,000  Level Salt Lake Center
10:45AM 38.3414 -112.0700 93° East 530 610 37,000  Level Salt Lake Center
10:46AM 38.3308 -111.8836 94° East 529 609 37,000  Level Salt Lake Center
10:47AM 38.3208 -111.6964 94° East 529 609 37,000  Level Salt Lake Center
10:48AM 38.3103 -111.5108 94° East 527 606 37,000  Level Salt Lake Center
10:49AM 38.2992 -111.3275 94° East 523 602 37,000  Level Salt Lake Center
10:50AM 38.2889 -111.1442 94° East 520 598 37,000  Level Salt Lake Center
10:51AM 38.2781 -110.9614 94° East 520 598 37,000  Level Salt Lake Center
10:53AM 38.2606 -110.7375 96° East 518 596 37,000  Level Denver Center
10:54AM 38.2483 -110.5342 94° East 517 595 37,000  Level Denver Center
10:55AM 38.2339 -110.3325 95° East 515 593 37,000  Level Denver Center
10:56AM 38.2242 -110.1889 95° East 513 590 37,000  Level Denver Center
10:57AM 38.2083 -109.9589 95° East 514 592 37,000  Level Denver Center
10:58AM 38.1939 -109.7572 95° East 515 593 37,000  Level Denver Center
10:59AM 38.1817 -109.5875 95° East 509 586 37,000  Level Denver Center
11:00AM 38.1717 -109.4461 95° East 505 581 37,000  Level Denver Center
11:01AM 38.1547 -109.2228 95° East 500 575 37,000  Level Denver Center
11:02AM 38.1414 -109.0553 96° East 500 575 37,000  Level Denver Center
11:03AM 38.1253 -108.8594 96° East 500 575 37,000  Level Denver Center
11:04AM 38.1114 -108.6931 96° East 497 572 37,000  Level Denver Center
11:05AM 38.0961 -108.4975 96° East 499 574 37,000  Level Denver Center
11:06AM 38.0819 -108.3314 96° East 498 573 37,000  Level Denver Center
11:07AM 38.0672 -108.1644 96° East 502 578 37,000  Level Denver Center
11:08AM 38.0503 -107.9683 96° East 501 577 37,000  Level Denver Center
11:09AM 38.0350 -107.7978 96° East 503 579 37,000  Level Denver Center
11:10AM 38.0219 -107.6556 97° East 506 582 37,000  Level Denver Center
11:11AM 38.0000 -107.4258 97° East 511 588 37,000  Level Denver Center
11:12AM 37.9822 -107.2281 96° East 508 585 37,000  Level Denver Center
11:13AM 37.9675 -107.0575 96° East 511 588 37,000  Level Denver Center
11:14AM 37.9497 -106.8894 98° East 507 583 37,000  Level Denver Center
11:15AM 37.9311 -106.6928 97° East 504 580 37,000  Level Denver Center
11:16AM 37.9136 -106.5258 98° East 502 578 37,000  Level Denver Center
11:17AM 37.8978 -106.3428 96° East 505 581 37,000  Level Denver Center
11:18AM 37.8769 -106.1461 98° East 505 581 37,000  Level Denver Center
11:20AM 37.8581 -105.9775 98° East 504 580 37,000  Level Denver Center
11:21AM 37.8428 -105.8375 98° East 505 581 37,000  Level Denver Center
11:22AM 37.8183 -105.6139 98° East 504 580 37,000  Level Denver Center
11:23AM 37.8003 -105.4464 98° East 502 578 37,000  Level Denver Center
11:24AM 37.7783 -105.2500 98° East 504 580 37,000  Level Denver Center
11:25AM 37.7575 -105.0544 98° East 502 578 37,000  Level Denver Center
11:26AM 37.7353 -104.8594 98° East 502 578 37,000  Level Denver Center
11:27AM 37.7147 -104.6922 99° East 504 580 37,000 244 Level Denver Center
11:28AM 37.6919 -104.4936 98° East 510 587 37,500 585 Climbing Denver Center
11:29AM 37.6708 -104.3214 99° East 515 593 38,200 677 Climbing Denver Center
11:30AM 37.6497 -104.1483 99° East 516 594 38,900 387 Climbing Denver Center
11:31AM 37.6247 -103.9422 99° East 521 600 39,000 49 Climbing Denver Center
11:32AM 37.6036 -103.7644 98° East 524 603 39,000  Level Denver Center
11:33AM 37.5817 -103.5919 99° East 520 598 39,000  Level Denver Center
11:34AM 37.5564 -103.3900 99° East 520 598 39,000  Level Denver Center
11:35AM 37.5342 -103.2194 99° East 517 595 39,000  Level Denver Center
11:36AM 37.5083 -103.0186 99° East 519 597 39,000  Level Denver Center
11:37AM 37.4853 -102.8486 100° East 515 593 39,000  Level Denver Center
11:38AM 37.4622 -102.6775 100° East 517 595 39,000  Level Denver Center
11:39AM 37.4419 -102.5294 100° East 519 597 39,000 -275 Level Kansas City Center
11:40AM 37.4147 -102.3317 100° East 516 594 38,500 -488 Descending Kansas City Center
11:41AM 37.3914 -102.1633 100° East 512 589 38,000 -732 Descending Kansas City Center
11:42AM 37.3642 -101.9700 100° East 506 582 37,000 -488 Descending Kansas City Center
11:43AM 37.3408 -101.8036 100° East 507 583 37,000  Level Kansas City Center
11:44AM 37.3175 -101.6394 100° East 504 580 37,000  Level Kansas City Center
11:45AM 37.2889 -101.4478 101° East 502 578 37,000  Level Kansas City Center
11:46AM 37.2658 -101.2844 100° East 500 575 37,000  Level Kansas City Center
11:47AM 37.2381 -101.0936 100° East 501 577 37,000  Level Kansas City Center
11:48AM 37.2139 -100.9314 101° East 500 575 37,000  Level Kansas City Center
11:49AM 37.1850 -100.7400 101° East 503 579 37,000  Level Kansas City Center
11:50AM 37.1597 -100.5758 101° East 504 580 37,000  Level Kansas City Center
11:51AM 37.1303 -100.3858 101° East 501 577 37,000  Level Kansas City Center
11:52AM 37.1050 -100.2247 101° East 497 572 37,000  Level Kansas City Center
11:53AM 37.0794 -100.0644 101° East 494 568 37,000  Level Kansas City Center
11:54AM 37.0494 -99.8717 101° East 501 577 37,000  Level Kansas City Center
11:55AM 37.0214 -99.6978 101° East 504 580 37,000  Level Kansas City Center
11:56AM 36.9931 -99.5239 101° East 507 583 37,000  Level Kansas City Center
11:57AM 36.9650 -99.3481 101° East 511 588 37,000  Level Kansas City Center
11:59AM 36.9353 -99.1728 102° East 514 592 37,000  Level Kansas City Center
12:00PM 36.9067 -99.0019 102° East 505 581 37,000  Level Kansas City Center
12:01PM 36.8781 -98.8311 102° East 503 579 37,000  Level Kansas City Center
12:02PM 36.8492 -98.6597 102° East 502 578 37,000  Level Kansas City Center
12:03PM 36.8142 -98.4572 102° East 499 574 37,000  Level Kansas City Center
12:04PM 36.7842 -98.2858 102° East 501 577 37,000  Level Kansas City Center
12:05PM 36.7536 -98.1117 102° East 507 583 37,000  Level Kansas City Center
12:06PM 36.7233 -97.9400 102° East 507 583 37,000  Level Kansas City Center
12:07PM 36.6919 -97.7667 103° East 509 586 37,000  Level Kansas City Center
12:08PM 36.6642 -97.6075 102° East 510 587 37,000  Level Kansas City Center
12:09PM 36.6292 -97.4117 102° East 515 593 37,000  Level Kansas City Center
12:10PM 36.5983 -97.2383 102° East 514 592 37,000  Level Kansas City Center
12:11PM 36.5661 -97.0692 103° East 507 583 37,000  Level Kansas City Center
12:12PM 36.5339 -96.8972 103° East 509 586 37,000  Level Kansas City Center
12:13PM 36.4981 -96.7033 103° East 517 595 37,000  Level Kansas City Center
12:14PM 36.4642 -96.5267 103° East 523 602 37,000  Level Kansas City Center
12:15PM 36.4297 -96.3489 103° East 527 606 37,000  Level Kansas City Center
12:16PM 36.3953 -96.1708 103° East 529 609 37,000  Level Kansas City Center
12:17PM 36.3608 -95.9919 103° East 532 612 37,000  Level Kansas City Center
12:18PM 36.3258 -95.8133 104° East 534 615 37,000  Level Kansas City Center
12:19PM 36.2869 -95.6186 104° East 532 612 37,000  Level Kansas City Center
12:20PM 36.2514 -95.4414 104° East 531 611 37,000  Level Kansas City Center
12:21PM 36.2153 -95.2650 104° East 530 610 37,000  Level Kansas City Center
12:22PM 36.1786 -95.0856 104° East 521 600 37,000  Level Kansas City Center
12:23PM 36.1442 -94.9136 104° East 516 594 37,000  Level Kansas City Center
12:24PM 36.1094 -94.7447 104° East 509 586 37,000  Level Kansas City Center
12:25PM 36.0667 -94.5417 105° East 509 586 37,000  Level Kansas City Center
12:26PM 36.0453 -94.4408 105° East 511 588 37,000  Level Memphis Center
12:27PM 36.0094 -94.2700 104° East 512 589 37,000  Level Memphis Center
12:28PM 35.9717 -94.0989 105° East 515 593 37,000  Level Memphis Center
12:29PM 35.9408 -93.9481 104° East 519 597 37,000  Level Memphis Center
12:30PM 35.8964 -93.7392 105° East 524 603 37,000  Level Memphis Center
12:31PM 35.8589 -93.5669 105° East 521 600 37,000  Level Memphis Center
12:32PM 35.8206 -93.3953 105° East 520 598 37,000  Level Memphis Center
12:33PM 35.7836 -93.2233 105° East 517 595 37,000  Level Memphis Center
12:34PM 35.7450 -93.0514 105° East 517 595 37,000  Level Memphis Center
12:35PM 35.7072 -92.8792 105° East 515 593 37,000  Level Memphis Center
12:36PM 35.6681 -92.7081 106° East 514 592 37,000  Level Memphis Center
12:37PM 35.6286 -92.5389 106° East 513 590 37,000  Level Memphis Center
12:38PM 35.5906 -92.3675 105° East 516 594 37,000  Level Memphis Center
12:39PM 35.5519 -92.1978 106° East 516 594 37,000  Level Memphis Center
12:40PM 35.5131 -92.0272 106° East 518 596 37,000  Level Memphis Center
12:41PM 35.4636 -91.8219 106° East 522 601 37,000  Level Memphis Center
12:42PM 35.4233 -91.6500 106° East 524 603 37,000  Level Memphis Center
12:43PM 35.3831 -91.4786 106° East 525 604 37,000  Level Memphis Center
12:44PM 35.3400 -91.3047 107° East 531 611 37,000  Level Memphis Center
12:45PM 35.3003 -91.1311 106° East 531 611 37,000  Level Memphis Center
12:46PM 35.2547 -90.9428 106° East 532 612 37,000  Level Memphis Center
12:47PM 35.2119 -90.7711 107° East 526 605 37,000  Level Memphis Center
12:48PM 35.1692 -90.6006 107° East 521 600 37,000  Level Memphis Center
12:49PM 35.1081 -90.4428 115° Southeast 515 593 37,000  Level Memphis Center
12:50PM 35.0444 -90.2911 117° Southeast 502 578 37,000  Level Memphis Center
12:51PM 34.9825 -90.1389 116° Southeast 498 573 37,000  Level Memphis Center
12:52PM 34.9203 -89.9878 117° Southeast 496 571 37,000  Level Memphis Center
12:53PM 34.8869 -89.8008 102° East 515 593 37,000  Level Memphis Center
12:54PM 34.8689 -89.6167 97° East 536 617 37,000  Level Memphis Center
12:55PM 34.8489 -89.4375 98° East 537 618 37,000  Level Memphis Center
12:56PM 34.8289 -89.2606 98° East 527 606 37,000  Level Memphis Center
12:58PM 34.8100 -89.0822 97° East 528 608 37,000  Level Memphis Center
12:59PM 34.7897 -88.9028 98° East 530 610 37,000  Level Memphis Center
01:00PM 34.7703 -88.7233 97° East 530 610 37,000  Level Memphis Center
01:01PM 34.7503 -88.5447 98° East 529 609 37,000 -934 Level Memphis Center
01:02PM 34.7306 -88.3725 98° East 523 602 35,100 -1,220 Descending Memphis Center
01:03PM 34.7103 -88.1978 98° East 521 600 34,500 -780 Descending Memphis Center
01:04PM 34.6900 -88.0228 98° East 522 601 33,500 -927 Descending Memphis Center
01:05PM 34.6681 -87.8456 99° East 527 606 32,600 -1,073 Descending Memphis Center
01:06PM 34.6433 -87.6322 98° East 527 606 31,300 -787 Descending Memphis Center
01:07PM 34.6208 -87.4575 99° East 517 595 31,000 -146 Descending Memphis Center
01:08PM 34.5906 -87.2869 102° East 512 589 31,000  Level Memphis Center
01:09PM 34.5575 -87.1008 102° East 521 600 31,000  Level Atlanta Center
01:10PM 34.5222 -86.9281 104° East 521 600 31,000 -400 Level Atlanta Center
01:11PM 34.4906 -86.7581 103° East 526 605 30,200 -950 Descending Atlanta Center
01:12PM 34.4567 -86.5858 103° East 526 605 29,100 -600 Descending Atlanta Center
01:13PM 34.4244 -86.4261 104° East 512 589 29,000 -250 Descending Atlanta Center
01:14PM 34.3942 -86.2617 103° East 500 575 28,600 -500 Descending Atlanta Center
01:15PM 34.3653 -86.1122 103° East 476 548 28,000 -600 Descending Atlanta Center
01:16PM 34.3344 -85.9606 104° East 466 536 27,400 -800 Descending Atlanta Center
01:17PM 34.3033 -85.8117 104° East 461 531 26,400 -1,350 Descending Atlanta Center
01:18PM 34.2761 -85.6678 103° East 449 517 24,700 -2,000 Descending Atlanta Center
01:19PM 34.2467 -85.5214 104° East 443 510 22,400 -2,700 Descending Atlanta Center
01:20PM 34.2044 -85.3725 109° East 462 532 19,300 -2,650 Descending Atlanta Center
01:21PM 34.1600 -85.2314 111° Southeast 462 532 17,100 -2,400 Descending Atlanta Center
01:22PM 34.1133 -85.0975 113° Southeast 442 509 14,500 -1,550 Descending Atlanta Center
01:23PM 34.0558 -84.9792 120° Southeast 421 484 14,000 -250 Descending Atlanta Center
01:24PM 33.9792 -84.8856 135° Southeast 398 458 14,000 -200 Level Atlanta Center
01:25PM 33.9089 -84.7947 133° Southeast 378 435 13,600 -500 Descending Atlanta Center
01:26PM 33.8444 -84.7192 136° Southeast 342 394 13,000 -865 Descending Atlanta Center
01:27PM 33.7833 -84.6500 137° Southeast 315 362 12,000 -1,077 Descending Atlanta TRACON
01:28PM 33.7333 -84.5667 126° Southeast 311 358 10,900 -762 Descending Atlanta TRACON
01:29PM 33.7333 -84.4667 90° East 291 335 10,400 -750 Descending Atlanta TRACON
01:30PM 33.7333 -84.3667 90° East 280 322 9,400 -1,050 Descending Atlanta TRACON
01:31PM 33.7333 -84.2833 90° East 270 311 8,300 -1,000 Descending Atlanta TRACON
01:32PM 33.7333 -84.2000 90° East 263 303 7,400 -1,150 Descending Atlanta TRACON
01:33PM 33.7000 -84.1500 129° Southeast 220 253 6,000 -1,421 Descending Atlanta TRACON
01:34PM 33.6667 -84.1667 203° Southwest 175 201 4,700 -1,000 Descending Atlanta TRACON
01:35PM 33.6500 -84.2333 253° West 167 192 4,000 -800 Descending Atlanta TRACON
01:36PM 33.6500 -84.2833 270° West 170 196 3,100 -900 Descending Atlanta TRACON
01:37PM 33.6500 -84.3333 270° West 159 183 2,200 -773 Descending Atlanta TRACON
01:38PM 33.6500 -84.3833 270° West 145 167 1,400 -727 Descending Atlanta TRACON
01:40PM 33.6333 -84.4167 253° West  Level FlightAware Approximate
01:47PM 33.6367 -84.4279 253° West  Level Estimated